createdAt,value
2017-07-25T00:00:23.865Z,19.04
2017-07-25T00:01:04.436Z,19.02
2017-07-25T00:01:45.007Z,18.95
2017-07-25T00:02:25.585Z,18.93
2017-07-25T00:03:06.171Z,18.98
2017-07-25T00:03:46.741Z,18.92
2017-07-25T00:04:27.337Z,18.92
2017-07-25T00:05:07.921Z,18.95
2017-07-25T00:05:48.500Z,18.92
2017-07-25T00:06:29.072Z,18.89
2017-07-25T00:07:09.639Z,18.9
2017-07-25T00:07:50.214Z,18.88
2017-07-25T00:08:30.804Z,18.92
2017-07-25T00:09:11.375Z,18.86
2017-07-25T00:09:51.944Z,18.74
2017-07-25T00:10:32.517Z,18.78
2017-07-25T00:11:13.107Z,18.78
2017-07-25T00:11:53.697Z,18.81
2017-07-25T00:12:34.306Z,18.71
2017-07-25T00:13:14.880Z,18.77
2017-07-25T00:13:55.457Z,18.65
2017-07-25T00:14:36.030Z,18.66
2017-07-25T00:15:16.604Z,18.65
2017-07-25T00:15:57.168Z,18.66
2017-07-25T00:16:37.740Z,18.66
2017-07-25T00:17:18.307Z,18.68
2017-07-25T00:17:58.879Z,18.65
2017-07-25T00:18:39.447Z,18.63
2017-07-25T00:19:20.004Z,18.7
2017-07-25T00:20:00.577Z,18.71
2017-07-25T00:20:41.156Z,18.74
2017-07-25T00:21:21.746Z,18.75
2017-07-25T00:22:02.311Z,18.74
2017-07-25T00:22:42.871Z,18.74
2017-07-25T00:23:23.468Z,18.78
2017-07-25T00:24:04.035Z,18.73
2017-07-25T00:24:44.603Z,18.73
2017-07-25T00:25:25.173Z,18.74
2017-07-25T00:26:05.751Z,18.77
2017-07-25T00:26:46.321Z,18.75
2017-07-25T00:27:26.899Z,18.75
2017-07-25T00:28:07.474Z,18.73
2017-07-25T00:28:48.044Z,18.75
2017-07-25T00:29:28.609Z,18.78
2017-07-25T00:30:09.192Z,18.74
2017-07-25T00:30:49.923Z,18.65
2017-07-25T00:31:30.500Z,18.66
2017-07-25T00:32:11.063Z,18.7
2017-07-25T00:32:51.645Z,18.65
2017-07-25T00:33:32.237Z,18.66
2017-07-25T00:34:12.824Z,18.68
2017-07-25T00:34:53.411Z,18.63
2017-07-25T00:35:33.987Z,18.77
2017-07-25T00:36:14.553Z,18.75
2017-07-25T00:36:55.116Z,18.66
2017-07-25T00:37:35.677Z,18.73
2017-07-25T00:38:16.254Z,18.81
2017-07-25T00:38:56.844Z,18.78
2017-07-25T00:39:37.412Z,18.75
2017-07-25T00:40:17.996Z,18.84
2017-07-25T00:40:58.546Z,18.77
2017-07-25T00:41:39.109Z,18.78
2017-07-25T00:42:19.678Z,18.81
2017-07-25T00:43:00.254Z,18.81
2017-07-25T00:43:40.817Z,18.8
2017-07-25T00:44:21.385Z,18.74
2017-07-25T00:45:01.962Z,18.81
2017-07-25T00:45:42.529Z,18.81
2017-07-25T00:46:23.104Z,18.75
2017-07-25T00:47:03.689Z,18.73
2017-07-25T00:47:44.251Z,18.74
2017-07-25T00:48:24.823Z,18.78
2017-07-25T00:49:05.389Z,18.81
2017-07-25T00:49:45.964Z,18.73
2017-07-25T00:50:26.526Z,18.8
2017-07-25T00:51:07.100Z,18.78
2017-07-25T00:51:47.660Z,18.78
2017-07-25T00:52:28.255Z,18.81
2017-07-25T00:53:08.830Z,18.74
2017-07-25T00:53:49.415Z,18.83
2017-07-25T00:54:29.999Z,18.93
2017-07-25T00:55:10.583Z,18.84
2017-07-25T00:55:51.160Z,18.83
2017-07-25T00:56:31.772Z,18.88
2017-07-25T00:57:12.348Z,18.84
2017-07-25T00:57:52.937Z,18.93
2017-07-25T00:58:33.512Z,18.86
2017-07-25T00:59:14.088Z,18.77
2017-07-25T00:59:54.667Z,18.8
2017-07-25T01:00:35.245Z,18.92
2017-07-25T01:01:15.842Z,18.95
2017-07-25T01:01:56.416Z,18.86
2017-07-25T01:02:36.984Z,18.88
2017-07-25T01:03:17.546Z,18.89
2017-07-25T01:03:58.118Z,18.93
2017-07-25T01:04:38.685Z,18.83
2017-07-25T01:05:19.259Z,18.81
2017-07-25T01:05:59.844Z,18.84
2017-07-25T01:06:40.433Z,18.84
2017-07-25T01:07:21.028Z,18.81
2017-07-25T01:08:01.607Z,18.84
2017-07-25T01:08:42.171Z,18.84
2017-07-25T01:09:22.735Z,18.88
2017-07-25T01:10:03.313Z,18.9
2017-07-25T01:10:43.880Z,18.84
2017-07-25T01:11:24.445Z,18.9
2017-07-25T01:12:05.016Z,18.78
2017-07-25T01:12:45.589Z,18.86
2017-07-25T01:13:26.165Z,18.74
2017-07-25T01:14:06.734Z,18.77
2017-07-25T01:14:47.313Z,18.83
2017-07-25T01:15:27.892Z,18.84
2017-07-25T01:16:08.491Z,18.8
2017-07-25T01:16:49.078Z,18.77
2017-07-25T01:17:29.646Z,18.81
2017-07-25T01:18:10.222Z,18.86
2017-07-25T01:18:50.864Z,18.78
2017-07-25T01:19:31.447Z,18.73
2017-07-25T01:20:12.019Z,18.75
2017-07-25T01:20:52.600Z,18.8
2017-07-25T01:21:33.185Z,18.73
2017-07-25T01:22:13.755Z,18.74
2017-07-25T01:22:54.324Z,18.74
2017-07-25T01:23:34.888Z,18.77
2017-07-25T01:24:15.452Z,18.73
2017-07-25T01:24:56.023Z,18.7
2017-07-25T01:25:36.598Z,18.73
2017-07-25T01:26:17.179Z,18.75
2017-07-25T01:26:57.762Z,18.73
2017-07-25T01:27:38.349Z,18.81
2017-07-25T01:28:18.938Z,18.7
2017-07-25T01:28:59.502Z,18.75
2017-07-25T01:29:40.081Z,18.74
2017-07-25T01:30:20.661Z,18.73
2017-07-25T01:31:01.243Z,18.78
2017-07-25T01:31:41.809Z,18.7
2017-07-25T01:32:22.373Z,18.74
2017-07-25T01:33:02.936Z,18.71
2017-07-25T01:33:43.499Z,18.77
2017-07-25T01:34:24.067Z,18.75
2017-07-25T01:35:04.645Z,18.65
2017-07-25T01:35:45.224Z,18.68
2017-07-25T01:36:25.789Z,18.68
2017-07-25T01:37:06.354Z,18.74
2017-07-25T01:37:46.910Z,18.68
2017-07-25T01:38:27.474Z,18.65
2017-07-25T01:39:08.062Z,18.68
2017-07-25T01:39:48.618Z,18.63
2017-07-25T01:40:29.176Z,18.68
2017-07-25T01:41:09.746Z,18.59
2017-07-25T01:41:50.311Z,18.66
2017-07-25T01:42:30.882Z,18.65
2017-07-25T01:43:11.453Z,18.6
2017-07-25T01:43:52.030Z,18.63
2017-07-25T01:44:32.600Z,18.58
2017-07-25T01:45:13.169Z,18.62
2017-07-25T01:45:53.736Z,18.63
2017-07-25T01:46:34.313Z,18.59
2017-07-25T01:47:14.900Z,18.62
2017-07-25T01:47:55.513Z,18.58
2017-07-25T01:48:36.071Z,18.6
2017-07-25T01:49:16.663Z,18.58
2017-07-25T01:49:57.235Z,18.59
2017-07-25T01:50:37.814Z,18.5
2017-07-25T01:51:18.386Z,18.55
2017-07-25T01:51:58.966Z,18.65
2017-07-25T01:52:39.534Z,18.56
2017-07-25T01:53:20.100Z,18.53
2017-07-25T01:54:00.671Z,18.58
2017-07-25T01:54:41.247Z,18.58
2017-07-25T01:55:21.822Z,18.55
2017-07-25T01:56:02.394Z,18.5
2017-07-25T01:56:42.970Z,18.6
2017-07-25T01:57:23.535Z,18.5
2017-07-25T01:58:04.105Z,18.55
2017-07-25T01:58:44.675Z,18.52
2017-07-25T01:59:25.258Z,18.52
2017-07-25T02:00:05.842Z,18.5
2017-07-25T02:00:46.404Z,18.55
2017-07-25T02:01:26.975Z,18.53
2017-07-25T02:02:07.554Z,18.49
2017-07-25T02:02:48.144Z,18.49
2017-07-25T02:03:28.722Z,18.5
2017-07-25T02:04:09.304Z,18.52
2017-07-25T02:04:49.888Z,18.68
2017-07-25T02:05:30.454Z,18.5
2017-07-25T02:06:11.032Z,18.56
2017-07-25T02:06:51.609Z,18.53
2017-07-25T02:07:32.175Z,18.49
2017-07-25T02:08:12.751Z,18.47
2017-07-25T02:08:53.317Z,18.56
2017-07-25T02:09:33.888Z,18.59
2017-07-25T02:10:14.485Z,18.63
2017-07-25T02:10:55.035Z,18.58
2017-07-25T02:11:35.604Z,18.6
2017-07-25T02:12:16.221Z,18.58
2017-07-25T02:12:56.785Z,18.58
2017-07-25T02:13:37.357Z,18.55
2017-07-25T02:14:17.918Z,18.59
2017-07-25T02:14:58.502Z,18.62
2017-07-25T02:15:39.088Z,18.68
2017-07-25T02:16:19.662Z,18.6
2017-07-25T02:17:00.232Z,18.6
2017-07-25T02:17:40.806Z,18.55
2017-07-25T02:18:21.393Z,18.63
2017-07-25T02:19:01.962Z,18.6
2017-07-25T02:19:42.545Z,18.56
2017-07-25T02:20:23.133Z,18.55
2017-07-25T02:21:03.696Z,18.59
2017-07-25T02:21:44.266Z,18.56
2017-07-25T02:22:24.830Z,18.53
2017-07-25T02:23:05.410Z,18.58
2017-07-25T02:23:45.990Z,18.59
2017-07-25T02:24:26.551Z,18.6
2017-07-25T02:25:07.126Z,18.53
2017-07-25T02:25:47.694Z,18.58
2017-07-25T02:26:28.281Z,18.58
2017-07-25T02:27:08.860Z,18.56
2017-07-25T02:27:49.438Z,18.5
2017-07-25T02:28:30.024Z,18.58
2017-07-25T02:29:10.626Z,18.53
2017-07-25T02:29:51.192Z,18.58
2017-07-25T02:30:31.780Z,18.53
2017-07-25T02:31:12.386Z,18.52
2017-07-25T02:31:52.969Z,18.58
2017-07-25T02:32:33.569Z,18.55
2017-07-25T02:33:14.141Z,18.55
2017-07-25T02:33:54.759Z,18.56
2017-07-25T02:34:35.321Z,18.55
2017-07-25T02:35:15.903Z,18.58
2017-07-25T02:35:56.464Z,18.5
2017-07-25T02:36:37.039Z,18.52
2017-07-25T02:37:17.626Z,18.49
2017-07-25T02:37:58.227Z,18.47
2017-07-25T02:38:38.785Z,18.55
2017-07-25T02:39:19.355Z,18.49
2017-07-25T02:39:59.932Z,18.44
2017-07-25T02:40:40.504Z,18.45
2017-07-25T02:41:21.068Z,18.44
2017-07-25T02:42:01.641Z,18.38
2017-07-25T02:42:42.211Z,18.44
2017-07-25T02:43:22.777Z,18.47
2017-07-25T02:44:03.354Z,18.43
2017-07-25T02:44:43.924Z,18.44
2017-07-25T02:45:24.496Z,18.41
2017-07-25T02:46:05.056Z,18.4
2017-07-25T02:46:45.628Z,18.41
2017-07-25T02:47:26.201Z,18.44
2017-07-25T02:48:06.780Z,18.38
2017-07-25T02:48:47.339Z,18.38
2017-07-25T02:49:27.908Z,18.45
2017-07-25T02:50:08.470Z,18.43
2017-07-25T02:50:49.040Z,18.45
2017-07-25T02:51:29.616Z,18.38
2017-07-25T02:52:10.216Z,18.45
2017-07-25T02:52:50.797Z,18.44
2017-07-25T02:53:31.372Z,18.35
2017-07-25T02:54:11.944Z,18.35
2017-07-25T02:54:52.520Z,18.43
2017-07-25T02:55:33.107Z,18.43
2017-07-25T02:56:13.676Z,18.4
2017-07-25T02:56:54.374Z,18.38
2017-07-25T02:57:34.956Z,18.41
2017-07-25T02:58:15.534Z,18.35
2017-07-25T02:58:56.107Z,18.49
2017-07-25T02:59:36.675Z,18.45
2017-07-25T03:00:17.290Z,18.44
2017-07-25T03:00:57.841Z,18.34
2017-07-25T03:01:38.406Z,18.34
2017-07-25T03:02:18.980Z,18.34
2017-07-25T03:02:59.569Z,18.34
2017-07-25T03:03:40.148Z,18.29
2017-07-25T03:04:20.712Z,18.25
2017-07-25T03:05:01.286Z,18.29
2017-07-25T03:05:41.853Z,18.33
2017-07-25T03:06:22.427Z,18.26
2017-07-25T03:07:03.003Z,18.28
2017-07-25T03:07:43.565Z,18.35
2017-07-25T03:08:24.141Z,18.28
2017-07-25T03:09:04.733Z,18.25
2017-07-25T03:09:45.306Z,18.26
2017-07-25T03:10:25.879Z,18.28
2017-07-25T03:11:06.461Z,18.37
2017-07-25T03:11:47.017Z,18.31
2017-07-25T03:12:27.587Z,18.26
2017-07-25T03:13:08.259Z,18.31
2017-07-25T03:13:48.813Z,18.28
2017-07-25T03:14:29.385Z,18.37
2017-07-25T03:15:09.958Z,18.35
2017-07-25T03:15:50.518Z,18.34
2017-07-25T03:16:31.092Z,18.29
2017-07-25T03:17:11.665Z,18.31
2017-07-25T03:17:52.231Z,18.37
2017-07-25T03:18:32.810Z,18.26
2017-07-25T03:19:13.395Z,18.23
2017-07-25T03:19:53.970Z,18.28
2017-07-25T03:20:34.532Z,18.23
2017-07-25T03:21:15.123Z,18.35
2017-07-25T03:21:55.684Z,18.29
2017-07-25T03:22:36.250Z,18.25
2017-07-25T03:23:16.829Z,18.26
2017-07-25T03:23:57.405Z,18.38
2017-07-25T03:24:38.005Z,18.31
2017-07-25T03:25:18.581Z,18.34
2017-07-25T03:25:59.142Z,18.29
2017-07-25T03:26:39.724Z,18.31
2017-07-25T03:27:20.448Z,18.26
2017-07-25T03:28:01.034Z,18.33
2017-07-25T03:28:41.620Z,18.25
2017-07-25T03:29:22.194Z,18.29
2017-07-25T03:30:02.782Z,18.28
2017-07-25T03:30:43.370Z,18.33
2017-07-25T03:31:23.951Z,18.28
2017-07-25T03:32:04.520Z,18.23
2017-07-25T03:32:45.092Z,18.23
2017-07-25T03:33:25.676Z,18.29
2017-07-25T03:34:06.251Z,18.25
2017-07-25T03:34:46.845Z,18.25
2017-07-25T03:35:27.410Z,18.29
2017-07-25T03:36:07.980Z,18.25
2017-07-25T03:36:48.563Z,18.22
2017-07-25T03:37:29.134Z,18.28
2017-07-25T03:38:09.699Z,18.23
2017-07-25T03:38:50.285Z,18.23
2017-07-25T03:39:30.860Z,18.26
2017-07-25T03:40:11.437Z,18.23
2017-07-25T03:40:52.002Z,18.23
2017-07-25T03:41:32.590Z,18.34
2017-07-25T03:42:13.166Z,18.15
2017-07-25T03:42:53.755Z,18.25
2017-07-25T03:43:34.373Z,18.15
2017-07-25T03:44:14.957Z,18.19
2017-07-25T03:44:55.558Z,18.23
2017-07-25T03:45:36.147Z,18.16
2017-07-25T03:46:16.715Z,18.23
2017-07-25T03:46:57.330Z,18.2
2017-07-25T03:47:37.889Z,18.18
2017-07-25T03:48:18.462Z,18.11
2017-07-25T03:48:59.051Z,18.23
2017-07-25T03:49:39.628Z,18.16
2017-07-25T03:50:20.227Z,18.13
2017-07-25T03:51:00.833Z,18.16
2017-07-25T03:51:41.399Z,18.19
2017-07-25T03:52:21.982Z,18.15
2017-07-25T03:53:02.586Z,18.2
2017-07-25T03:53:43.160Z,18.16
2017-07-25T03:54:23.729Z,18.15
2017-07-25T03:55:04.318Z,18.08
2017-07-25T03:55:44.899Z,18.15
2017-07-25T03:56:25.466Z,18.11
2017-07-25T03:57:06.039Z,18.18
2017-07-25T03:57:46.730Z,18.13
2017-07-25T03:58:27.300Z,18.1
2017-07-25T03:59:07.870Z,18.11
2017-07-25T03:59:48.449Z,18.07
2017-07-25T04:00:29.007Z,18.13
2017-07-25T04:01:09.574Z,18.04
2017-07-25T04:01:50.153Z,18.08
2017-07-25T04:02:30.718Z,18.15
2017-07-25T04:03:11.283Z,18.07
2017-07-25T04:03:51.869Z,18.04
2017-07-25T04:04:32.436Z,18.01
2017-07-25T04:05:13.008Z,18.05
2017-07-25T04:05:53.578Z,18.08
2017-07-25T04:06:34.157Z,18.07
2017-07-25T04:07:14.728Z,18.11
2017-07-25T04:07:55.311Z,18.05
2017-07-25T04:08:35.907Z,18.01
2017-07-25T04:09:16.488Z,18.05
2017-07-25T04:09:57.086Z,18.03
2017-07-25T04:10:37.664Z,18.08
2017-07-25T04:11:18.231Z,18.07
2017-07-25T04:11:58.820Z,18.01
2017-07-25T04:12:39.411Z,18.05
2017-07-25T04:13:19.992Z,18.03
2017-07-25T04:14:00.622Z,18.08
2017-07-25T04:14:41.235Z,18.07
2017-07-25T04:15:21.801Z,18.08
2017-07-25T04:16:02.381Z,18.04
2017-07-25T04:16:42.958Z,18.04
2017-07-25T04:17:23.530Z,18.01
2017-07-25T04:18:04.342Z,18.01
2017-07-25T04:18:44.907Z,18.01
2017-07-25T04:19:25.495Z,18
2017-07-25T04:20:06.085Z,18
2017-07-25T04:20:46.669Z,17.98
2017-07-25T04:21:27.240Z,17.98
2017-07-25T04:22:07.815Z,17.98
2017-07-25T04:22:48.379Z,18.01
2017-07-25T04:23:28.955Z,17.95
2017-07-25T04:24:09.529Z,17.95
2017-07-25T04:24:50.110Z,17.98
2017-07-25T04:25:30.681Z,17.94
2017-07-25T04:26:11.256Z,17.97
2017-07-25T04:26:51.825Z,18
2017-07-25T04:27:32.408Z,17.95
2017-07-25T04:28:12.980Z,18.04
2017-07-25T04:28:53.543Z,18.01
2017-07-25T04:29:34.131Z,18.23
2017-07-25T04:30:14.709Z,18.25
2017-07-25T04:30:55.280Z,18.34
2017-07-25T04:31:35.855Z,18.34
2017-07-25T04:32:16.435Z,18.45
2017-07-25T04:32:56.998Z,18.5
2017-07-25T04:33:37.562Z,18.47
2017-07-25T04:34:18.145Z,18.56
2017-07-25T04:34:58.705Z,18.59
2017-07-25T04:35:39.285Z,18.66
2017-07-25T04:36:19.890Z,18.68
2017-07-25T04:37:00.476Z,18.7
2017-07-25T04:37:41.087Z,18.74
2017-07-25T04:38:21.661Z,18.73
2017-07-25T04:39:02.242Z,18.71
2017-07-25T04:39:42.844Z,18.84
2017-07-25T04:40:23.414Z,18.83
2017-07-25T04:41:04.000Z,18.83
2017-07-25T04:41:44.590Z,18.8
2017-07-25T04:42:25.171Z,18.81
2017-07-25T04:43:05.736Z,18.84
2017-07-25T04:43:46.301Z,18.89
2017-07-25T04:44:26.890Z,18.84
2017-07-25T04:45:07.473Z,18.84
2017-07-25T04:45:48.039Z,18.9
2017-07-25T04:46:28.614Z,18.92
2017-07-25T04:47:09.196Z,18.93
2017-07-25T04:47:49.771Z,18.9
2017-07-25T04:48:30.360Z,18.86
2017-07-25T04:49:10.949Z,19
2017-07-25T04:49:51.527Z,19.02
2017-07-25T04:50:32.105Z,19.08
2017-07-25T04:51:12.702Z,19.02
2017-07-25T04:51:53.290Z,19.11
2017-07-25T04:52:33.862Z,19.14
2017-07-25T04:53:14.448Z,19.04
2017-07-25T04:53:55.031Z,19.14
2017-07-25T04:54:35.662Z,19.18
2017-07-25T04:55:16.230Z,19.14
2017-07-25T04:55:56.799Z,19.16
2017-07-25T04:56:37.369Z,19.14
2017-07-25T04:57:17.934Z,19.15
2017-07-25T04:57:58.513Z,19.14
2017-07-25T04:58:39.118Z,19.18
2017-07-25T04:59:19.719Z,19.29
2017-07-25T05:00:00.316Z,19.27
2017-07-25T05:00:40.925Z,19.27
2017-07-25T05:01:21.535Z,19.31
2017-07-25T05:02:02.132Z,19.31
2017-07-25T05:02:42.711Z,19.36
2017-07-25T05:03:23.326Z,19.26
2017-07-25T05:04:03.918Z,19.34
2017-07-25T05:04:44.553Z,19.29
2017-07-25T05:05:25.116Z,19.29
2017-07-25T05:06:05.750Z,19.44
2017-07-25T05:06:46.323Z,19.44
2017-07-25T05:07:26.907Z,19.33
2017-07-25T05:08:07.500Z,19.4
2017-07-25T05:08:48.075Z,19.44
2017-07-25T05:09:28.692Z,19.4
2017-07-25T05:10:09.278Z,19.47
2017-07-25T05:10:49.850Z,19.47
2017-07-25T05:11:30.420Z,19.41
2017-07-25T05:12:11.013Z,19.52
2017-07-25T05:12:51.561Z,19.52
2017-07-25T05:13:32.129Z,19.4
2017-07-25T05:14:12.718Z,19.51
2017-07-25T05:14:53.301Z,19.45
2017-07-25T05:15:33.881Z,19.44
2017-07-25T05:16:14.477Z,19.48
2017-07-25T05:16:55.056Z,19.39
2017-07-25T05:17:35.639Z,19.39
2017-07-25T05:18:16.224Z,19.47
2017-07-25T05:18:56.821Z,19.45
2017-07-25T05:19:37.380Z,19.41
2017-07-25T05:20:17.942Z,19.39
2017-07-25T05:20:58.566Z,19.44
2017-07-25T05:21:39.163Z,19.45
2017-07-25T05:22:19.734Z,19.39
2017-07-25T05:23:00.307Z,19.36
2017-07-25T05:23:40.896Z,19.31
2017-07-25T05:24:21.555Z,19.39
2017-07-25T05:25:02.125Z,19.37
2017-07-25T05:25:42.714Z,19.37
2017-07-25T05:26:23.289Z,19.47
2017-07-25T05:27:03.855Z,19.45
2017-07-25T05:27:44.460Z,19.47
2017-07-25T05:28:25.041Z,19.48
2017-07-25T05:29:05.617Z,19.48
2017-07-25T05:29:46.194Z,19.45
2017-07-25T05:30:26.786Z,19.51
2017-07-25T05:31:07.344Z,19.44
2017-07-25T05:31:47.908Z,19.51
2017-07-25T05:32:28.505Z,19.51
2017-07-25T05:33:09.085Z,19.52
2017-07-25T05:33:49.671Z,19.51
2017-07-25T05:34:30.270Z,19.52
2017-07-25T05:35:10.841Z,19.47
2017-07-25T05:35:51.422Z,19.48
2017-07-25T05:36:31.988Z,19.44
2017-07-25T05:37:12.583Z,19.52
2017-07-25T05:37:53.163Z,19.55
2017-07-25T05:38:33.730Z,19.48
2017-07-25T05:39:14.293Z,19.49
2017-07-25T05:39:54.905Z,19.44
2017-07-25T05:40:35.479Z,19.37
2017-07-25T05:41:16.068Z,19.29
2017-07-25T05:41:56.653Z,19.31
2017-07-25T05:42:37.282Z,19.37
2017-07-25T05:43:17.862Z,19.33
2017-07-25T05:43:58.452Z,19.31
2017-07-25T05:44:39.026Z,19.39
2017-07-25T05:45:19.607Z,19.29
2017-07-25T05:46:00.177Z,19.33
2017-07-25T05:46:40.888Z,19.3
2017-07-25T05:47:21.479Z,19.33
2017-07-25T05:48:02.045Z,19.33
2017-07-25T05:48:42.639Z,19.29
2017-07-25T05:49:23.231Z,19.29
2017-07-25T05:50:03.811Z,19.15
2017-07-25T05:50:44.422Z,19.3
2017-07-25T05:51:24.997Z,19.34
2017-07-25T05:52:05.600Z,19.29
2017-07-25T05:52:46.174Z,19.29
2017-07-25T05:53:26.761Z,19.27
2017-07-25T05:54:07.340Z,19.34
2017-07-25T05:54:47.925Z,19.29
2017-07-25T05:55:28.493Z,19.29
2017-07-25T05:56:09.070Z,19.31
2017-07-25T05:56:49.696Z,19.24
2017-07-25T05:57:30.272Z,19.24
2017-07-25T05:58:10.923Z,19.26
2017-07-25T05:58:51.539Z,19.15
2017-07-25T05:59:32.126Z,19.21
2017-07-25T06:00:12.711Z,19.15
2017-07-25T06:00:53.331Z,19.15
2017-07-25T06:01:33.939Z,19.12
2017-07-25T06:02:14.533Z,19.21
2017-07-25T06:02:55.107Z,19.22
2017-07-25T06:03:35.667Z,19.24
2017-07-25T06:04:16.247Z,19.16
2017-07-25T06:04:56.835Z,19.22
2017-07-25T06:05:37.367Z,19.15
2017-07-25T06:06:17.932Z,19.18
2017-07-25T06:06:58.505Z,19.18
2017-07-25T06:07:39.074Z,19.21
2017-07-25T06:08:19.652Z,19.12
2017-07-25T06:09:00.215Z,19.18
2017-07-25T06:09:40.791Z,19.26
2017-07-25T06:10:21.362Z,19.29
2017-07-25T06:11:01.938Z,19.22
2017-07-25T06:11:42.514Z,19.29
2017-07-25T06:12:23.195Z,19.26
2017-07-25T06:13:03.878Z,19.22
2017-07-25T06:13:45.116Z,19.22
2017-07-25T06:14:25.722Z,19.26
2017-07-25T06:15:06.299Z,19.22
2017-07-25T06:15:46.859Z,19.12
2017-07-25T06:16:27.419Z,19.21
2017-07-25T06:17:08.003Z,19.27
2017-07-25T06:17:48.583Z,19.33
2017-07-25T06:18:29.152Z,19.3
2017-07-25T06:19:09.709Z,19.26
2017-07-25T06:19:50.285Z,19.33
2017-07-25T06:20:30.898Z,19.37
2017-07-25T06:21:11.485Z,19.24
2017-07-25T06:21:52.056Z,19.29
2017-07-25T06:22:32.622Z,19.22
2017-07-25T06:23:13.205Z,19.18
2017-07-25T06:23:53.762Z,19.21
2017-07-25T06:24:34.356Z,19.14
2017-07-25T06:25:14.936Z,19.14
2017-07-25T06:25:55.507Z,19.14
2017-07-25T06:26:36.075Z,19.18
2017-07-25T06:27:16.634Z,19.14
2017-07-25T06:27:57.208Z,19.11
2017-07-25T06:28:37.807Z,19.09
2017-07-25T06:29:18.384Z,19
2017-07-25T06:29:58.945Z,19
2017-07-25T06:30:39.535Z,19.15
2017-07-25T06:31:20.113Z,19
2017-07-25T06:32:00.676Z,19.09
2017-07-25T06:32:41.250Z,19.11
2017-07-25T06:33:21.837Z,18.98
2017-07-25T06:34:02.407Z,18.99
2017-07-25T06:34:42.972Z,18.96
2017-07-25T06:35:23.533Z,18.99
2017-07-25T06:36:04.107Z,19.07
2017-07-25T06:36:44.694Z,19.02
2017-07-25T06:37:25.306Z,18.9
2017-07-25T06:38:05.872Z,18.9
2017-07-25T06:38:46.447Z,18.9
2017-07-25T06:39:27.028Z,18.84
2017-07-25T06:40:07.598Z,18.88
2017-07-25T06:40:48.182Z,18.9
2017-07-25T06:41:28.755Z,18.86
2017-07-25T06:42:09.330Z,18.93
2017-07-25T06:42:49.892Z,18.84
2017-07-25T06:43:30.471Z,18.89
2017-07-25T06:44:11.052Z,18.9
2017-07-25T06:44:51.632Z,18.93
2017-07-25T06:45:32.214Z,18.84
2017-07-25T06:46:12.806Z,18.9
2017-07-25T06:46:53.387Z,18.83
2017-07-25T06:47:33.949Z,18.75
2017-07-25T06:48:14.509Z,18.81
2017-07-25T06:48:55.076Z,18.73
2017-07-25T06:49:35.658Z,18.75
2017-07-25T06:50:16.236Z,18.81
2017-07-25T06:50:56.804Z,18.77
2017-07-25T06:51:37.382Z,18.89
2017-07-25T06:52:17.968Z,18.83
2017-07-25T06:52:58.555Z,18.86
2017-07-25T06:53:39.142Z,18.89
2017-07-25T06:54:19.751Z,18.88
2017-07-25T06:55:00.334Z,18.89
2017-07-25T06:55:40.925Z,18.9
2017-07-25T06:56:21.488Z,18.86
2017-07-25T06:57:02.070Z,18.88
2017-07-25T06:57:42.677Z,18.9
2017-07-25T06:58:23.250Z,18.88
2017-07-25T06:59:03.822Z,18.89
2017-07-25T06:59:44.411Z,18.88
2017-07-25T07:00:24.985Z,18.92
2017-07-25T07:01:05.573Z,18.88
2017-07-25T07:01:46.158Z,18.86
2017-07-25T07:02:26.739Z,18.86
2017-07-25T07:03:07.325Z,18.92
2017-07-25T07:03:47.970Z,18.84
2017-07-25T07:04:28.527Z,18.86
2017-07-25T07:05:09.106Z,18.88
2017-07-25T07:05:49.720Z,18.88
2017-07-25T07:06:30.288Z,18.74
2017-07-25T07:07:10.866Z,18.74
2017-07-25T07:07:51.471Z,18.8
2017-07-25T07:08:32.033Z,18.81
2017-07-25T07:09:12.590Z,18.73
2017-07-25T07:09:53.164Z,18.77
2017-07-25T07:10:33.756Z,18.86
2017-07-25T07:11:14.517Z,18.86
2017-07-25T07:11:55.127Z,18.83
2017-07-25T07:12:35.709Z,18.86
2017-07-25T07:13:16.263Z,18.86
2017-07-25T07:13:56.838Z,18.86
2017-07-25T07:14:37.433Z,18.88
2017-07-25T07:15:18.027Z,18.89
2017-07-25T07:15:58.600Z,18.88
2017-07-25T07:16:39.178Z,18.86
2017-07-25T07:17:19.759Z,18.93
2017-07-25T07:18:00.354Z,18.98
2017-07-25T07:18:40.942Z,18.88
2017-07-25T07:19:21.521Z,18.95
2017-07-25T07:20:02.128Z,18.9
2017-07-25T07:20:42.710Z,18.89
2017-07-25T07:21:23.308Z,18.89
2017-07-25T07:22:03.890Z,18.81
2017-07-25T07:22:44.467Z,18.73
2017-07-25T07:23:25.050Z,18.77
2017-07-25T07:24:05.607Z,18.8
2017-07-25T07:24:46.185Z,18.83
2017-07-25T07:25:26.758Z,18.8
2017-07-25T07:26:07.321Z,18.84
2017-07-25T07:26:47.914Z,18.84
2017-07-25T07:27:28.494Z,18.92
2017-07-25T07:28:09.055Z,18.93
2017-07-25T07:28:49.632Z,18.88
2017-07-25T07:29:30.204Z,18.88
2017-07-25T07:30:10.782Z,18.83
2017-07-25T07:30:51.356Z,18.83
2017-07-25T07:31:31.950Z,18.75
2017-07-25T07:32:12.521Z,18.81
2017-07-25T07:32:53.133Z,18.83
2017-07-25T07:33:33.707Z,18.88
2017-07-25T07:34:14.302Z,18.83
2017-07-25T07:34:54.867Z,18.88
2017-07-25T07:35:35.435Z,18.9
2017-07-25T07:36:16.017Z,18.92
2017-07-25T07:36:56.584Z,19.07
2017-07-25T07:37:37.158Z,18.96
2017-07-25T07:38:17.742Z,18.98
2017-07-25T07:38:58.310Z,19.07
2017-07-25T07:39:38.881Z,18.93
2017-07-25T07:40:19.451Z,18.96
2017-07-25T07:41:00.039Z,18.88
2017-07-25T07:41:40.592Z,18.93
2017-07-25T07:42:21.188Z,18.93
2017-07-25T07:43:01.766Z,18.96
2017-07-25T07:43:42.333Z,18.95
2017-07-25T07:44:22.903Z,18.99
2017-07-25T07:45:03.518Z,19.02
2017-07-25T07:45:44.058Z,19.09
2017-07-25T07:46:24.644Z,19.08
2017-07-25T07:47:05.224Z,19.04
2017-07-25T07:47:45.787Z,19.08
2017-07-25T07:48:26.356Z,19
2017-07-25T07:49:06.942Z,19.14
2017-07-25T07:49:47.527Z,19.15
2017-07-25T07:50:28.097Z,19.08
2017-07-25T07:51:08.662Z,19.04
2017-07-25T07:51:49.288Z,19.02
2017-07-25T07:52:29.875Z,19.02
2017-07-25T07:53:10.474Z,19
2017-07-25T07:53:51.062Z,19
2017-07-25T07:54:31.636Z,19.04
2017-07-25T07:55:12.214Z,19.04
2017-07-25T07:55:52.817Z,18.92
2017-07-25T07:56:33.383Z,18.88
2017-07-25T07:57:13.958Z,18.9
2017-07-25T07:57:54.564Z,18.88
2017-07-25T07:58:35.146Z,18.86
2017-07-25T07:59:15.716Z,18.86
2017-07-25T07:59:56.332Z,18.92
2017-07-25T08:00:36.931Z,18.88
2017-07-25T08:01:17.514Z,18.86
2017-07-25T08:01:58.115Z,18.92
2017-07-25T08:02:38.709Z,18.9
2017-07-25T08:03:19.280Z,18.83
2017-07-25T08:03:59.854Z,18.83
2017-07-25T08:04:40.423Z,18.89
2017-07-25T08:05:21.008Z,18.75
2017-07-25T08:06:01.580Z,18.74
2017-07-25T08:06:42.141Z,18.81
2017-07-25T08:07:22.708Z,18.75
2017-07-25T08:08:03.289Z,18.73
2017-07-25T08:08:43.846Z,18.77
2017-07-25T08:09:24.451Z,18.81
2017-07-25T08:10:05.036Z,18.78
2017-07-25T08:10:45.631Z,18.74
2017-07-25T08:11:26.216Z,18.73
2017-07-25T08:12:06.778Z,18.77
2017-07-25T08:12:47.464Z,18.62
2017-07-25T08:13:28.055Z,18.66
2017-07-25T08:14:08.776Z,18.68
2017-07-25T08:14:49.346Z,18.63
2017-07-25T08:15:29.926Z,18.59
2017-07-25T08:16:10.505Z,18.58
2017-07-25T08:16:51.088Z,18.5
2017-07-25T08:17:31.675Z,18.44
2017-07-25T08:18:12.257Z,18.44
2017-07-25T08:18:52.939Z,18.41
2017-07-25T08:19:33.532Z,18.45
2017-07-25T08:20:14.096Z,18.47
2017-07-25T08:20:54.695Z,18.38
2017-07-25T08:21:35.276Z,18.37
2017-07-25T08:22:15.893Z,18.38
2017-07-25T08:22:56.463Z,18.41
2017-07-25T08:23:37.050Z,18.44
2017-07-25T08:24:17.622Z,18.43
2017-07-25T08:24:58.206Z,18.38
2017-07-25T08:25:38.778Z,18.4
2017-07-25T08:26:19.355Z,18.28
2017-07-25T08:26:59.942Z,18.31
2017-07-25T08:27:40.536Z,18.23
2017-07-25T08:28:21.175Z,18.26
2017-07-25T08:29:01.755Z,18.29
2017-07-25T08:29:42.349Z,18.2
2017-07-25T08:30:22.915Z,18.26
2017-07-25T08:31:03.586Z,18.23
2017-07-25T08:31:44.161Z,18.35
2017-07-25T08:32:24.734Z,18.28
2017-07-25T08:33:05.345Z,18.29
2017-07-25T08:33:45.920Z,18.34
2017-07-25T08:34:26.479Z,18.38
2017-07-25T08:35:07.073Z,18.44
2017-07-25T08:35:47.668Z,18.44
2017-07-25T08:36:28.272Z,18.45
2017-07-25T08:37:08.861Z,18.47
2017-07-25T08:37:49.431Z,18.52
2017-07-25T08:38:30.065Z,18.56
2017-07-25T08:39:10.642Z,18.59
2017-07-25T08:39:51.226Z,18.59
2017-07-25T08:40:31.817Z,18.53
2017-07-25T08:41:12.401Z,18.63
2017-07-25T08:41:52.970Z,18.65
2017-07-25T08:42:33.573Z,18.63
2017-07-25T08:43:14.192Z,18.68
2017-07-25T08:43:54.880Z,18.62
2017-07-25T08:44:35.541Z,18.56